sensor_id;sensor_type;location;lat;lon;timestamp;pressure;altitude;pressure_sealevel;temperature;humidity
76590;BME280;65471;55.908;37.880;2023-07-20T00:02:36;98312.44;;;13.67;81.04
76590;BME280;65471;55.908;37.880;2023-07-20T00:05:09;98312.72;;;13.66;81.05
76590;BME280;65471;55.908;37.880;2023-07-20T00:07:36;98312.19;;;13.63;81.14
76590;BME280;65471;55.908;37.880;2023-07-20T00:10:03;98315.50;;;13.60;81.33
76590;BME280;65471;55.908;37.880;2023-07-20T00:12:30;98313.88;;;13.59;81.36
76590;BME280;65471;55.908;37.880;2023-07-20T00:14:56;98321.78;;;13.56;81.33
76590;BME280;65471;55.908;37.880;2023-07-20T00:17:23;98315.81;;;13.54;81.65
76590;BME280;65471;55.908;37.880;2023-07-20T00:19:50;98316.41;;;13.51;81.73
76590;BME280;65471;55.908;37.880;2023-07-20T00:22:17;98322.66;;;13.51;81.58
76590;BME280;65471;55.908;37.880;2023-07-20T00:24:43;98323.50;;;13.46;81.63
76590;BME280;65471;55.908;37.880;2023-07-20T00:27:10;98331.66;;;13.46;81.94
76590;BME280;65471;55.908;37.880;2023-07-20T00:29:37;98334.06;;;13.48;81.79
76590;BME280;65471;55.908;37.880;2023-07-20T00:32:04;98330.28;;;13.49;81.60
76590;BME280;65471;55.908;37.880;2023-07-20T00:34:31;98329.47;;;13.49;81.58
76590;BME280;65471;55.908;37.880;2023-07-20T00:36:58;98328.94;;;13.46;81.67
76590;BME280;65471;55.908;37.880;2023-07-20T00:39:25;98329.47;;;13.49;81.56
76590;BME280;65471;55.908;37.880;2023-07-20T00:41:51;98331.09;;;13.50;81.66
76590;BME280;65471;55.908;37.880;2023-07-20T00:44:18;98337.31;;;13.50;81.53
76590;BME280;65471;55.908;37.880;2023-07-20T00:46:45;98335.69;;;13.49;81.36
76590;BME280;65471;55.908;37.880;2023-07-20T00:49:13;98337.91;;;13.47;81.50
76590;BME280;65471;55.908;37.880;2023-07-20T00:51:40;98341.97;;;13.50;81.21
76590;BME280;65471;55.908;37.880;2023-07-20T00:54:07;98352.53;;;13.51;81.20
76590;BME280;65471;55.908;37.880;2023-07-20T00:56:34;98342.75;;;13.50;81.21
76590;BME280;65471;55.908;37.880;2023-07-20T00:59:01;98349.56;;;13.48;81.32
76590;BME280;65471;55.908;37.880;2023-07-20T01:01:28;98340.91;;;13.45;81.41
76590;BME280;65471;55.908;37.880;2023-07-20T01:03:55;98350.13;;;13.44;81.54
76590;BME280;65471;55.908;37.880;2023-07-20T01:06:24;98343.66;;;13.40;81.66
76590;BME280;65471;55.908;37.880;2023-07-20T01:11:31;98339.59;;;13.38;81.60
76590;BME280;65471;55.908;37.880;2023-07-20T01:14:00;98351.56;;;13.37;81.61
76590;BME280;65471;55.908;37.880;2023-07-20T01:16:27;98346.41;;;13.35;81.60
76590;BME280;65471;55.908;37.880;2023-07-20T01:18:54;98343.94;;;13.34;81.77
76590;BME280;65471;55.908;37.880;2023-07-20T01:21:24;98342.63;;;13.31;81.82
76590;BME280;65471;55.908;37.880;2023-07-20T01:24:05;98343.72;;;13.30;81.92
76590;BME280;65471;55.908;37.880;2023-07-20T01:31:48;98358.09;;;13.30;81.99
76590;BME280;65471;55.908;37.880;2023-07-20T01:34:18;98359.19;;;13.29;82.07
76590;BME280;65471;55.908;37.880;2023-07-20T01:36:46;98351.63;;;13.26;82.17
76590;BME280;65471;55.908;37.880;2023-07-20T01:39:15;98350.81;;;13.26;82.27
76590;BME280;65471;55.908;37.880;2023-07-20T01:41:42;98348.38;;;13.24;82.31
76590;BME280;65471;55.908;37.880;2023-07-20T01:44:09;98355.69;;;13.24;82.20
76590;BME280;65471;55.908;37.880;2023-07-20T01:46:36;98348.09;;;13.26;82.24
76590;BME280;65471;55.908;37.880;2023-07-20T01:49:03;98348.69;;;13.23;82.34
76590;BME280;65471;55.908;37.880;2023-07-20T01:51:30;98347.03;;;13.22;82.42
76590;BME280;65471;55.908;37.880;2023-07-20T01:53:56;98356.28;;;13.21;82.40
76590;BME280;65471;55.908;37.880;2023-07-20T01:56:23;98351.41;;;13.18;82.44
76590;BME280;65471;55.908;37.880;2023-07-20T01:58:50;98355.75;;;13.19;82.59
76590;BME280;65471;55.908;37.880;2023-07-20T02:01:17;98357.38;;;13.20;82.64
76590;BME280;65471;55.908;37.880;2023-07-20T02:03:44;98357.38;;;13.20;82.62
76590;BME280;65471;55.908;37.880;2023-07-20T02:06:10;98356.28;;;13.21;82.82
76590;BME280;65471;55.908;37.880;2023-07-20T02:08:37;98356.28;;;13.21;82.69
76590;BME280;65471;55.908;37.880;2023-07-20T02:11:04;98358.69;;;13.22;82.57
76590;BME280;65471;55.908;37.880;2023-07-20T02:13:31;98345.41;;;13.21;82.50
76590;BME280;65471;55.908;37.880;2023-07-20T02:15:58;98360.91;;;13.20;82.65
76590;BME280;65471;55.908;37.880;2023-07-20T02:18:24;98353.84;;;13.19;82.67
76590;BME280;65471;55.908;37.880;2023-07-20T02:20:52;98354.69;;;13.20;82.64
76590;BME280;65471;55.908;37.880;2023-07-20T02:23:19;98343.81;;;13.20;82.80
76590;BME280;65471;55.908;37.880;2023-07-20T02:25:46;98352.25;;;13.18;82.81
76590;BME280;65471;55.908;37.880;2023-07-20T02:28:13;98341.09;;;13.20;82.76
76590;BME280;65471;55.908;37.880;2023-07-20T02:30:40;98349.75;;;13.22;82.55
76590;BME280;65471;55.908;37.880;2023-07-20T02:33:07;98354.09;;;13.23;82.66
76590;BME280;65471;55.908;37.880;2023-07-20T02:35:34;98349.75;;;13.22;82.77
76590;BME280;65471;55.908;37.880;2023-07-20T02:38:01;98344.63;;;13.20;82.69
76590;BME280;65471;55.908;37.880;2023-07-20T02:40:27;98348.97;;;13.21;82.76
76590;BME280;65471;55.908;37.880;2023-07-20T02:42:55;98359.00;;;13.21;83.01
76590;BME280;65471;55.908;37.880;2023-07-20T02:45:21;98359.81;;;13.21;82.79
76590;BME280;65471;55.908;37.880;2023-07-20T02:47:48;98364.97;;;13.23;82.85
76590;BME280;65471;55.908;37.880;2023-07-20T02:50:17;98363.34;;;13.22;82.94
76590;BME280;65471;55.908;37.880;2023-07-20T02:52:43;98362.75;;;13.25;83.08
76590;BME280;65471;55.908;37.880;2023-07-20T02:55:10;98355.16;;;13.27;83.04
76590;BME280;65471;55.908;37.880;2023-07-20T02:57:37;98361.09;;;13.29;83.17
76590;BME280;65471;55.908;37.880;2023-07-20T03:00:04;98370.88;;;13.30;82.99
76590;BME280;65471;55.908;37.880;2023-07-20T03:02:32;98371.38;;;13.32;82.92
76590;BME280;65471;55.908;37.880;2023-07-20T03:04:59;98379.25;;;13.34;83.05
76590;BME280;65471;55.908;37.880;2023-07-20T03:07:27;98382.25;;;13.37;82.87
76590;BME280;65471;55.908;37.880;2023-07-20T03:09:55;98371.91;;;13.39;82.63
76590;BME280;65471;55.908;37.880;2023-07-20T03:12:21;98381.09;;;13.43;82.67
76590;BME280;65471;55.908;37.880;2023-07-20T03:14:48;98384.91;;;13.42;82.70
76590;BME280;65471;55.908;37.880;2023-07-20T03:17:15;98389.78;;;13.45;82.57
76590;BME280;65471;55.908;37.880;2023-07-20T03:19:42;98383.78;;;13.49;82.38
76590;BME280;65471;55.908;37.880;2023-07-20T03:22:09;98379.41;;;13.53;82.29
76590;BME280;65471;55.908;37.880;2023-07-20T03:24:36;98385.34;;;13.55;82.26
76590;BME280;65471;55.908;37.880;2023-07-20T03:27:03;98395.91;;;13.56;82.17
76590;BME280;65471;55.908;37.880;2023-07-20T03:29:31;98388.31;;;13.58;82.20
76590;BME280;65471;55.908;37.880;2023-07-20T03:31:58;98398.59;;;13.61;82.22
76590;BME280;65471;55.908;37.880;2023-07-20T03:34:25;98395.81;;;13.67;82.10
76590;BME280;65471;55.908;37.880;2023-07-20T03:36:52;98392.25;;;13.71;82.08
76590;BME280;65471;55.908;37.880;2023-07-20T03:39:18;98397.63;;;13.76;81.78
76590;BME280;65471;55.908;37.880;2023-07-20T03:41:46;98398.97;;;13.79;81.25
76590;BME280;65471;55.908;37.880;2023-07-20T03:44:12;98395.66;;;13.82;81.42
76590;BME280;65471;55.908;37.880;2023-07-20T03:46:39;98391.81;;;13.88;81.38
76590;BME280;65471;55.908;37.880;2023-07-20T03:49:06;98398.81;;;13.94;80.90
76590;BME280;65471;55.908;37.880;2023-07-20T03:51:33;98405.31;;;13.98;80.70
76590;BME280;65471;55.908;37.880;2023-07-20T03:53:59;98402.25;;;14.05;80.47
76590;BME280;65471;55.908;37.880;2023-07-20T03:56:28;98404.84;;;14.15;80.65
76590;BME280;65471;55.908;37.880;2023-07-20T03:58:55;98403.94;;;14.25;80.35
76590;BME280;65471;55.908;37.880;2023-07-20T04:01:22;98411.22;;;14.30;80.18
76590;BME280;65471;55.908;37.880;2023-07-20T04:03:48;98398.69;;;14.29;79.99
76590;BME280;65471;55.908;37.880;2023-07-20T04:06:15;98404.72;;;14.26;80.33
76590;BME280;65471;55.908;37.880;2023-07-20T04:08:44;98405.03;;;14.24;80.52
76590;BME280;65471;55.908;37.880;2023-07-20T04:11:11;98404.72;;;14.26;80.41
76590;BME280;65471;55.908;37.880;2023-07-20T04:13:37;98409.56;;;14.29;80.37
76590;BME280;65471;55.908;37.880;2023-07-20T04:16:04;98406.28;;;14.32;80.36
76590;BME280;65471;55.908;37.880;2023-07-20T04:18:31;98409.22;;;14.36;80.60
76590;BME280;65471;55.908;37.880;2023-07-20T04:20:58;98401.53;;;14.43;80.60
76590;BME280;65471;55.908;37.880;2023-07-20T04:23:24;98409.06;;;14.51;80.24
76590;BME280;65471;55.908;37.880;2023-07-20T04:25:51;98398.31;;;14.60;79.67
76590;BME280;65471;55.908;37.880;2023-07-20T04:28:18;98403.94;;;14.69;79.54
76590;BME280;65471;55.908;37.880;2023-07-20T04:30:48;98401.09;;;14.79;79.35
76590;BME280;65471;55.908;37.880;2023-07-20T04:33:15;98411.31;;;14.87;79.28
76590;BME280;65471;55.908;37.880;2023-07-20T04:35:45;98405.72;;;14.97;78.94
76590;BME280;65471;55.908;37.880;2023-07-20T04:38:13;98407.50;;;15.07;78.38
76590;BME280;65471;55.908;37.880;2023-07-20T04:40:42;98400.59;;;15.15;77.86
76590;BME280;65471;55.908;37.880;2023-07-20T04:43:08;98407.28;;;15.23;77.57
76590;BME280;65471;55.908;37.880;2023-07-20T04:45:35;98402.25;;;15.30;77.51
76590;BME280;65471;55.908;37.880;2023-07-20T04:48:02;98417.69;;;15.34;77.62
76590;BME280;65471;55.908;37.880;2023-07-20T04:50:29;98403.72;;;15.41;77.52
76590;BME280;65471;55.908;37.880;2023-07-20T04:52:55;98416.13;;;15.47;77.32
76590;BME280;65471;55.908;37.880;2023-07-20T04:55:22;98408.69;;;15.53;77.04
76590;BME280;65471;55.908;37.880;2023-07-20T04:57:49;98406.47;;;15.55;76.68
76590;BME280;65471;55.908;37.880;2023-07-20T05:00:16;98410.81;;;15.56;76.87
76590;BME280;65471;55.908;37.880;2023-07-20T05:02:43;98403.34;;;15.62;76.80
76590;BME280;65471;55.908;37.880;2023-07-20T05:05:10;98410.06;;;15.69;76.27
76590;BME280;65471;55.908;37.880;2023-07-20T05:07:37;98414.28;;;15.76;76.07
76590;BME280;65471;55.908;37.880;2023-07-20T05:10:03;98409.28;;;15.83;75.60
76590;BME280;65471;55.908;37.880;2023-07-20T05:12:30;98414.34;;;15.90;75.55
76590;BME280;65471;55.908;37.880;2023-07-20T05:14:57;98412.66;;;15.94;75.55
76590;BME280;65471;55.908;37.880;2023-07-20T05:17:24;98402.94;;;16.01;75.62
76590;BME280;65471;55.908;37.880;2023-07-20T05:19:51;98417.59;;;16.05;75.10
76590;BME280;65471;55.908;37.880;2023-07-20T05:22:20;98407.41;;;16.11;75.19
76590;BME280;65471;55.908;37.880;2023-07-20T05:24:47;98419.34;;;16.15;74.72
76590;BME280;65471;55.908;37.880;2023-07-20T05:27:14;98414.28;;;16.22;74.85
76590;BME280;65471;55.908;37.880;2023-07-20T05:29:44;98419.34;;;16.29;74.78
76590;BME280;65471;55.908;37.880;2023-07-20T05:32:11;98418.34;;;16.39;74.31
76590;BME280;65471;55.908;37.880;2023-07-20T05:34:38;98414.09;;;16.47;74.03
76590;BME280;65471;55.908;37.880;2023-07-20T05:37:05;98414.16;;;16.55;73.79
76590;BME280;65471;55.908;37.880;2023-07-20T05:39:37;98412.03;;;16.66;73.63
76590;BME280;65471;55.908;37.880;2023-07-20T05:42:04;98415.66;;;16.76;73.36
76590;BME280;65471;55.908;37.880;2023-07-20T05:44:31;98417.19;;;16.82;73.30
76590;BME280;65471;55.908;37.880;2023-07-20T05:46:57;98414.31;;;16.87;72.55
76590;BME280;65471;55.908;37.880;2023-07-20T05:49:24;98400.91;;;16.90;71.99
76590;BME280;65471;55.908;37.880;2023-07-20T05:51:51;98409.28;;;16.94;72.10
76590;BME280;65471;55.908;37.880;2023-07-20T05:54:18;98417.78;;;16.93;72.29
76590;BME280;65471;55.908;37.880;2023-07-20T05:56:46;98406.69;;;16.89;72.22
76590;BME280;65471;55.908;37.880;2023-07-20T05:59:13;98409.91;;;16.91;72.38
76590;BME280;65471;55.908;37.880;2023-07-20T06:01:39;98413.44;;;16.91;72.00
76590;BME280;65471;55.908;37.880;2023-07-20T06:04:06;98403.50;;;16.96;71.78
76590;BME280;65471;55.908;37.880;2023-07-20T06:06:33;98412.69;;;17.00;71.50
76590;BME280;65471;55.908;37.880;2023-07-20T06:09:00;98414.50;;;17.04;71.69
76590;BME280;65471;55.908;37.880;2023-07-20T06:11:30;98411.88;;;17.13;71.35
76590;BME280;65471;55.908;37.880;2023-07-20T06:13:57;98411.09;;;17.21;71.31
76590;BME280;65471;55.908;37.880;2023-07-20T06:16:24;98412.00;;;17.31;71.34
76590;BME280;65471;55.908;37.880;2023-07-20T06:18:51;98408.22;;;17.40;71.31
76590;BME280;65471;55.908;37.880;2023-07-20T06:21:18;98412.13;;;17.48;71.44
76590;BME280;65471;55.908;37.880;2023-07-20T06:23:45;98409.13;;;17.58;71.07
76590;BME280;65471;55.908;37.880;2023-07-20T06:26:12;98411.63;;;17.69;70.70
76590;BME280;65471;55.908;37.880;2023-07-20T06:28:39;98418.56;;;17.75;70.54
76590;BME280;65471;55.908;37.880;2023-07-20T06:31:06;98423.41;;;17.78;68.77
76590;BME280;65471;55.908;37.880;2023-07-20T06:33:33;98423.44;;;17.87;67.28
76590;BME280;65471;55.908;37.880;2023-07-20T06:36:01;98427.06;;;17.96;65.87
76590;BME280;65471;55.908;37.880;2023-07-20T06:38:27;98426.31;;;18.04;65.25
76590;BME280;65471;55.908;37.880;2023-07-20T06:40:57;98430.00;;;18.08;65.76
76590;BME280;65471;55.908;37.880;2023-07-20T06:43:44;98424.38;;;18.05;66.25
76590;BME280;65471;55.908;37.880;2023-07-20T06:46:14;98429.84;;;18.05;67.04
76590;BME280;65471;55.908;37.880;2023-07-20T06:48:41;98434.03;;;18.02;66.97
76590;BME280;65471;55.908;37.880;2023-07-20T06:51:11;98439.03;;;18.09;66.69
76590;BME280;65471;55.908;37.880;2023-07-20T06:53:38;98426.47;;;18.08;66.53
76590;BME280;65471;55.908;37.880;2023-07-20T06:56:05;98436.47;;;18.13;66.13
76590;BME280;65471;55.908;37.880;2023-07-20T06:58:31;98425.28;;;18.23;65.63
76590;BME280;65471;55.908;37.880;2023-07-20T07:01:04;98443.03;;;18.34;65.40
76590;BME280;65471;55.908;37.880;2023-07-20T07:03:31;98433.03;;;18.38;64.99
76590;BME280;65471;55.908;37.880;2023-07-20T07:06:02;98428.56;;;18.51;63.83
76590;BME280;65471;55.908;37.880;2023-07-20T07:08:30;98427.97;;;18.63;62.85
76590;BME280;65471;55.908;37.880;2023-07-20T07:10:56;98429.78;;;18.76;62.75
76590;BME280;65471;55.908;37.880;2023-07-20T07:13:23;98431.41;;;18.86;61.29
76590;BME280;65471;55.908;37.880;2023-07-20T07:15:51;98433.84;;;18.96;60.75
76590;BME280;65471;55.908;37.880;2023-07-20T07:18:18;98432.09;;;19.01;61.30
76590;BME280;65471;55.908;37.880;2023-07-20T07:20:50;98441.13;;;19.01;60.57
76590;BME280;65471;55.908;37.880;2023-07-20T07:23:17;98440.47;;;18.95;60.61
76590;BME280;65471;55.908;37.880;2023-07-20T07:25:45;98433.84;;;18.88;61.00
76590;BME280;65471;55.908;37.880;2023-07-20T07:28:12;98435.25;;;18.76;61.98
76590;BME280;65471;55.908;37.880;2023-07-20T07:30:38;98449.41;;;18.70;62.45
76590;BME280;65471;55.908;37.880;2023-07-20T07:33:05;98449.75;;;18.77;61.74
76590;BME280;65471;55.908;37.880;2023-07-20T07:35:32;98442.34;;;18.86;61.62
76590;BME280;65471;55.908;37.880;2023-07-20T07:37:59;98456.69;;;18.83;61.24
76590;BME280;65471;55.908;37.880;2023-07-20T07:40:44;98445.31;;;18.99;58.63
76590;BME280;65471;55.908;37.880;2023-07-20T07:43:11;98446.94;;;19.17;58.96
76590;BME280;65471;55.908;37.880;2023-07-20T07:45:39;98440.81;;;19.20;57.88
76590;BME280;65471;55.908;37.880;2023-07-20T07:48:07;98442.56;;;19.34;56.77
76590;BME280;65471;55.908;37.880;2023-07-20T07:50:34;98446.13;;;19.43;57.21
76590;BME280;65471;55.908;37.880;2023-07-20T07:53:01;98445.63;;;19.41;58.05
76590;BME280;65471;55.908;37.880;2023-07-20T07:55:27;98440.34;;;19.44;58.47
76590;BME280;65471;55.908;37.880;2023-07-20T07:57:54;98442.09;;;19.49;57.30
76590;BME280;65471;55.908;37.880;2023-07-20T08:00:21;98434.53;;;19.37;57.16
76590;BME280;65471;55.908;37.880;2023-07-20T08:02:49;98434.69;;;19.41;57.25
76590;BME280;65471;55.908;37.880;2023-07-20T08:05:16;98430.16;;;19.45;56.33
76590;BME280;65471;55.908;37.880;2023-07-20T08:07:43;98426.13;;;19.60;56.64
76590;BME280;65471;55.908;37.880;2023-07-20T08:10:10;98425.28;;;19.77;56.82
76590;BME280;65471;55.908;37.880;2023-07-20T08:12:37;98434.31;;;19.77;56.58
76590;BME280;65471;55.908;37.880;2023-07-20T08:15:04;98444.97;;;19.88;56.24
76590;BME280;65471;55.908;37.880;2023-07-20T08:17:31;98458.03;;;19.82;56.63
76590;BME280;65471;55.908;37.880;2023-07-20T08:19:58;98442.72;;;19.90;55.20
76590;BME280;65471;55.908;37.880;2023-07-20T08:22:25;98442.97;;;20.14;53.29
76590;BME280;65471;55.908;37.880;2023-07-20T08:24:52;98451.56;;;20.43;52.62
76590;BME280;65471;55.908;37.880;2023-07-20T08:27:19;98442.56;;;20.63;52.25
76590;BME280;65471;55.908;37.880;2023-07-20T08:29:46;98443.84;;;20.75;51.89
76590;BME280;65471;55.908;37.880;2023-07-20T08:32:12;98448.59;;;20.57;52.59
76590;BME280;65471;55.908;37.880;2023-07-20T08:34:41;98447.06;;;20.38;52.90
76590;BME280;65471;55.908;37.880;2023-07-20T08:37:08;98447.97;;;20.12;53.06
76590;BME280;65471;55.908;37.880;2023-07-20T08:39:36;98459.47;;;19.97;52.73
76590;BME280;65471;55.908;37.880;2023-07-20T08:42:03;98438.44;;;20.18;52.03
76590;BME280;65471;55.908;37.880;2023-07-20T08:44:33;98448.19;;;20.37;52.38
76590;BME280;65471;55.908;37.880;2023-07-20T08:47:01;98445.19;;;20.60;52.55
76590;BME280;65471;55.908;37.880;2023-07-20T08:49:31;98441.03;;;20.83;50.75
76590;BME280;65471;55.908;37.880;2023-07-20T08:51:59;98442.69;;;21.06;49.17
76590;BME280;65471;55.908;37.880;2023-07-20T08:54:29;98444.91;;;21.12;49.29
76590;BME280;65471;55.908;37.880;2023-07-20T08:57:03;98442.19;;;21.25;50.00
76590;BME280;65471;55.908;37.880;2023-07-20T08:59:30;98441.25;;;21.42;49.71
76590;BME280;65471;55.908;37.880;2023-07-20T09:02:00;98438.06;;;21.61;49.72
76590;BME280;65471;55.908;37.880;2023-07-20T09:04:27;98442.69;;;21.81;48.99
76590;BME280;65471;55.908;37.880;2023-07-20T09:06:54;98442.75;;;21.94;48.02
76590;BME280;65471;55.908;37.880;2023-07-20T09:09:21;98437.97;;;22.15;48.20
76590;BME280;65471;55.908;37.880;2023-07-20T09:11:51;98434.75;;;22.26;48.37
76590;BME280;65471;55.908;37.880;2023-07-20T09:14:17;98440.66;;;22.36;48.08
76590;BME280;65471;55.908;37.880;2023-07-20T09:19:16;98444.44;;;22.44;47.08
76590;BME280;65471;55.908;37.880;2023-07-20T09:21:49;98449.56;;;22.21;47.59
76590;BME280;65471;55.908;37.880;2023-07-20T09:24:17;98453.44;;;21.74;47.81
76590;BME280;65471;55.908;37.880;2023-07-20T09:26:45;98456.03;;;21.37;49.15
76590;BME280;65471;55.908;37.880;2023-07-20T09:29:14;98459.97;;;21.06;49.90
76590;BME280;65471;55.908;37.880;2023-07-20T09:31:42;98461.03;;;20.93;50.61
76590;BME280;65471;55.908;37.880;2023-07-20T09:34:09;98459.75;;;20.90;50.61
76590;BME280;65471;55.908;37.880;2023-07-20T09:36:37;98454.13;;;21.08;49.77
76590;BME280;65471;55.908;37.880;2023-07-20T09:39:07;98458.16;;;21.10;50.03
76590;BME280;65471;55.908;37.880;2023-07-20T09:41:40;98466.81;;;21.00;49.88
76590;BME280;65471;55.908;37.880;2023-07-20T09:44:13;98463.97;;;20.88;49.74
76590;BME280;65471;55.908;37.880;2023-07-20T09:46:44;98469.16;;;20.80;50.89
76590;BME280;65471;55.908;37.880;2023-07-20T09:49:14;98471.47;;;20.78;51.25
76590;BME280;65471;55.908;37.880;2023-07-20T09:51:47;98467.44;;;20.76;52.30
76590;BME280;65471;55.908;37.880;2023-07-20T09:54:14;98483.25;;;20.79;52.14
76590;BME280;65471;55.908;37.880;2023-07-20T09:56:41;98479.38;;;20.80;51.39
76590;BME280;65471;55.908;37.880;2023-07-20T09:59:08;98475.56;;;20.93;50.38
76590;BME280;65471;55.908;37.880;2023-07-20T10:01:35;98469.81;;;21.07;50.43
76590;BME280;65471;55.908;37.880;2023-07-20T10:04:07;98475.25;;;21.16;51.08
76590;BME280;65471;55.908;37.880;2023-07-20T10:06:35;98468.09;;;21.24;51.43
76590;BME280;65471;55.908;37.880;2023-07-20T10:09:03;98463.56;;;21.28;51.34
76590;BME280;65471;55.908;37.880;2023-07-20T10:11:31;98463.13;;;21.17;51.86
76590;BME280;65471;55.908;37.880;2023-07-20T10:13:58;98465.53;;;20.97;52.46
76590;BME280;65471;55.908;37.880;2023-07-20T10:16:26;98465.34;;;20.73;52.49
76590;BME280;65471;55.908;37.880;2023-07-20T10:18:59;98478.00;;;20.56;53.13
76590;BME280;65471;55.908;37.880;2023-07-20T10:21:29;98466.38;;;20.50;52.80
76590;BME280;65471;55.908;37.880;2023-07-20T10:23:59;98471.53;;;20.52;53.07
76590;BME280;65471;55.908;37.880;2023-07-20T10:26:26;98483.63;;;20.68;53.08
76590;BME280;65471;55.908;37.880;2023-07-20T10:28:53;98487.88;;;20.87;53.36
76590;BME280;65471;55.908;37.880;2023-07-20T10:31:20;98471.00;;;20.97;53.21
76590;BME280;65471;55.908;37.880;2023-07-20T10:33:47;98481.22;;;20.97;52.31
76590;BME280;65471;55.908;37.880;2023-07-20T10:36:17;98466.66;;;20.96;52.43
76590;BME280;65471;55.908;37.880;2023-07-20T10:38:55;98474.88;;;21.05;52.40
76590;BME280;65471;55.908;37.880;2023-07-20T10:41:35;98462.97;;;21.13;52.45
76590;BME280;65471;55.908;37.880;2023-07-20T10:44:07;98479.97;;;21.15;50.53
76590;BME280;65471;55.908;37.880;2023-07-20T10:46:44;98478.56;;;21.09;50.79
76590;BME280;65471;55.908;37.880;2023-07-20T10:49:12;98477.66;;;21.17;51.30
76590;BME280;65471;55.908;37.880;2023-07-20T10:56:42;98476.47;;;21.27;49.78
76590;BME280;65471;55.908;37.880;2023-07-20T10:59:19;98483.38;;;21.33;49.64
76590;BME280;65471;55.908;37.880;2023-07-20T11:01:47;98475.59;;;21.35;49.24
76590;BME280;65471;55.908;37.880;2023-07-20T11:04:16;98468.75;;;21.42;50.11
76590;BME280;65471;55.908;37.880;2023-07-20T11:06:46;98473.06;;;21.51;50.77
76590;BME280;65471;55.908;37.880;2023-07-20T11:09:13;98473.56;;;21.53;50.25
76590;BME280;65471;55.908;37.880;2023-07-20T11:11:46;98479.91;;;21.66;49.91
76590;BME280;65471;55.908;37.880;2023-07-20T11:14:21;98470.72;;;21.62;49.13
76590;BME280;65471;55.908;37.880;2023-07-20T11:16:48;98474.47;;;21.36;49.37
76590;BME280;65471;55.908;37.880;2023-07-20T11:19:17;98477.59;;;21.47;49.30
76590;BME280;65471;55.908;37.880;2023-07-20T11:21:50;98483.13;;;21.68;48.97
76590;BME280;65471;55.908;37.880;2023-07-20T11:24:29;98469.88;;;21.83;49.15
76590;BME280;65471;55.908;37.880;2023-07-20T11:26:56;98479.16;;;22.24;49.32
76590;BME280;65471;55.908;37.880;2023-07-20T11:29:23;98485.88;;;22.60;48.39
76590;BME280;65471;55.908;37.880;2023-07-20T11:31:59;98481.53;;;22.84;47.16
76590;BME280;65471;55.908;37.880;2023-07-20T11:34:26;98479.44;;;23.18;46.84
76590;BME280;65471;55.908;37.880;2023-07-20T11:36:53;98472.72;;;23.43;47.43
76590;BME280;65471;55.908;37.880;2023-07-20T11:39:24;98482.47;;;23.82;47.18
76590;BME280;65471;55.908;37.880;2023-07-20T11:41:53;98479.78;;;24.29;45.26
76590;BME280;65471;55.908;37.880;2023-07-20T11:44:21;98476.34;;;24.80;44.40
76590;BME280;65471;55.908;37.880;2023-07-20T11:47:03;98476.97;;;24.90;44.81
76590;BME280;65471;55.908;37.880;2023-07-20T11:49:34;98463.94;;;24.10;44.97
76590;BME280;65471;55.908;37.880;2023-07-20T11:52:01;98488.31;;;23.52;46.53
76590;BME280;65471;55.908;37.880;2023-07-20T11:54:28;98488.59;;;23.34;47.16
76590;BME280;65471;55.908;37.880;2023-07-20T11:56:55;98488.94;;;24.62;44.17
76590;BME280;65471;55.908;37.880;2023-07-20T11:59:22;98501.69;;;24.06;45.37
76590;BME280;65471;55.908;37.880;2023-07-20T12:01:49;98508.97;;;23.05;47.33
76590;BME280;65471;55.908;37.880;2023-07-20T12:04:16;98505.75;;;22.20;47.94
76590;BME280;65471;55.908;37.880;2023-07-20T12:06:43;98509.75;;;21.55;49.06
76590;BME280;65471;55.908;37.880;2023-07-20T12:09:13;98523.50;;;21.04;50.68
76590;BME280;65471;55.908;37.880;2023-07-20T12:11:42;98527.81;;;20.84;51.40
76590;BME280;65471;55.908;37.880;2023-07-20T12:14:09;98515.47;;;20.69;52.66
76590;BME280;65471;55.908;37.880;2023-07-20T12:16:43;98517.22;;;20.65;52.81
76590;BME280;65471;55.908;37.880;2023-07-20T12:19:11;98510.59;;;20.58;53.38
76590;BME280;65471;55.908;37.880;2023-07-20T12:21:41;98531.69;;;20.36;55.64
76590;BME280;65471;55.908;37.880;2023-07-20T12:24:12;98540.66;;;20.07;56.69
76590;BME280;65471;55.908;37.880;2023-07-20T12:26:39;98528.88;;;19.80;58.45
76590;BME280;65471;55.908;37.880;2023-07-20T12:29:06;98531.44;;;19.67;59.58
76590;BME280;65471;55.908;37.880;2023-07-20T12:31:33;98536.28;;;19.53;61.03
76590;BME280;65471;55.908;37.880;2023-07-20T12:34:02;98525.94;;;19.41;62.76
76590;BME280;65471;55.908;37.880;2023-07-20T12:36:28;98528.19;;;19.39;62.01
76590;BME280;65471;55.908;37.880;2023-07-20T12:38:55;98525.31;;;19.36;61.53
76590;BME280;65471;55.908;37.880;2023-07-20T12:41:22;98519.19;;;19.39;59.93
76590;BME280;65471;55.908;37.880;2023-07-20T12:43:48;98530.28;;;19.42;58.96
76590;BME280;65471;55.908;37.880;2023-07-20T12:46:16;98519.50;;;19.55;57.98
76590;BME280;65471;55.908;37.880;2023-07-20T12:48:43;98517.25;;;19.65;57.68
76590;BME280;65471;55.908;37.880;2023-07-20T12:51:13;98525.31;;;19.71;57.52
76590;BME280;65471;55.908;37.880;2023-07-20T12:53:40;98519.66;;;19.76;57.04
76590;BME280;65471;55.908;37.880;2023-07-20T12:56:07;98516.91;;;19.76;56.03
76590;BME280;65471;55.908;37.880;2023-07-20T12:58:36;98514.50;;;19.74;56.61
76590;BME280;65471;55.908;37.880;2023-07-20T13:01:03;98525.31;;;19.71;56.37
76590;BME280;65471;55.908;37.880;2023-07-20T13:03:31;98515.31;;;19.66;55.23
76590;BME280;65471;55.908;37.880;2023-07-20T13:06:00;98507.56;;;19.59;56.30
76590;BME280;65471;55.908;37.880;2023-07-20T13:08:30;98510.16;;;19.64;56.31
76590;BME280;65471;55.908;37.880;2023-07-20T13:10:56;98512.72;;;19.61;56.60